Time;durP1;ratioP1;P1;durP2;ratioP2;P2;SDS_P1;SDS_P2;PMS_P1;PMS_P2;Temp;Humidity;BMP_temperature;BMP_pressure;BME280_temperature;BME280_humidity;BME280_pressure;Samples;Min_cycle;Max_cycle;Signal;HPM_P1;HPM_P2
2022/11/05 00:10:58;;;;;;;;;;;6.60;99.90;;;;;;4967480;28;19926;-68
2022/11/05 00:19:10;;;;;;;;;;;6.60;99.90;;;;;;4923002;28;209102;-67
2022/11/05 00:27:06;;;;;;;;;;;6.60;99.90;;;;;;4906624;28;162357;-68
2022/11/05 00:29:33;;;;;;;;;;;6.60;99.90;;;;;;4968769;28;19930;-69
2022/11/05 00:31:59;;;;;;;;;;;6.60;99.90;;;;;;4913306;28;211064;-68
2022/11/05 00:34:25;;;;;;;;;;;6.60;99.90;;;;;;4979214;28;20335;-68
2022/11/05 00:36:51;;;;;;;;;;;6.60;99.90;;;;;;4916014;28;36174;-69
2022/11/05 00:39:17;;;;;;;;;;;6.60;99.90;;;;;;4984952;28;19930;-68
2022/11/05 00:41:43;;;;;;;;;;;6.60;99.90;;;;;;4906998;28;140449;-70
2022/11/05 00:49:28;;;;;;;;;;;6.60;99.90;;;;;;4986995;28;188604;-68
2022/11/05 00:49:39;;;;;;;;;;;6.40;99.90;;;;;;5023566;28;19929;-68
2022/11/05 00:54:49;;;;;;;;;;;6.40;99.90;;;;;;5087184;28;19924;-68
2022/11/05 00:57:15;;;;;;;;;;;6.40;99.90;;;;;;5050098;27;207019;-69
2022/11/05 00:59:41;;;;;;;;;;;6.40;99.90;;;;;;5105475;27;19973;-67
2022/11/05 01:02:07;;;;;;;;;;;6.40;99.90;;;;;;5052770;27;211354;-68
2022/11/05 01:04:33;;;;;;;;;;;6.40;99.90;;;;;;5119503;27;19985;-68
2022/11/05 01:06:59;;;;;;;;;;;6.40;99.90;;;;;;5056414;27;223517;-68
2022/11/05 01:09:25;;;;;;;;;;;6.40;99.90;;;;;;5092231;27;19927;-68
2022/11/05 01:11:51;;;;;;;;;;;6.30;99.90;;;;;;5055682;27;207533;-68
2022/11/05 01:14:16;;;;;;;;;;;6.30;99.90;;;;;;5086290;28;20387;-67
2022/11/05 01:16:44;;;;;;;;;;;6.30;99.90;;;;;;5058413;27;210228;-68
2022/11/05 01:19:10;;;;;;;;;;;6.30;99.90;;;;;;5107968;27;19939;-67
2022/11/05 01:21:36;;;;;;;;;;;6.20;99.90;;;;;;5091309;28;205850;-69
2022/11/05 01:24:02;;;;;;;;;;;6.30;99.90;;;;;;5050269;27;200286;-69
2022/11/05 01:26:28;;;;;;;;;;;6.20;99.90;;;;;;5106627;27;19927;-68
2022/11/05 01:28:55;;;;;;;;;;;6.20;99.90;;;;;;5043455;27;19919;-68
2022/11/05 01:31:22;;;;;;;;;;;6.20;99.90;;;;;;5102712;28;19927;-68
2022/11/05 01:33:48;;;;;;;;;;;6.10;99.90;;;;;;5022101;28;187673;-69
2022/11/05 01:36:14;;;;;;;;;;;6.10;99.90;;;;;;5107149;27;19920;-68
2022/11/05 01:38:40;;;;;;;;;;;6.00;99.90;;;;;;5043018;27;161662;-69
2022/11/05 01:41:06;;;;;;;;;;;6.00;99.90;;;;;;5104784;28;19930;-68
2022/11/05 01:43:44;;;;;;;;;;;6.00;99.90;;;;;;5051952;27;207199;-67
2022/11/05 01:46:10;;;;;;;;;;;6.00;99.90;;;;;;5107254;27;19923;-68
2022/11/05 01:48:36;;;;;;;;;;;6.00;99.90;;;;;;5074407;27;207950;-69
2022/11/05 01:51:06;;;;;;;;;;;5.90;99.90;;;;;;5125793;27;19923;-69
2022/11/05 01:53:41;;;;;;;;;;;5.90;99.90;;;;;;5052048;27;207297;-69
2022/11/05 01:56:07;;;;;;;;;;;5.90;99.90;;;;;;5126787;27;20309;-69
2022/11/05 01:58:35;;;;;;;;;;;5.90;99.90;;;;;;5053402;27;224197;-69
2022/11/05 02:01:01;;;;;;;;;;;5.90;99.90;;;;;;5126395;27;20005;-71
2022/11/05 02:03:27;;;;;;;;;;;5.90;99.90;;;;;;5028632;27;208038;-69
2022/11/05 02:05:55;;;;;;;;;;;5.90;99.90;;;;;;5103956;27;19939;-68
2022/11/05 02:08:39;;;;;;;;;;;5.90;99.90;;;;;;5041843;27;167708;-68
2022/11/05 02:11:05;;;;;;;;;;;5.80;99.90;;;;;;5104497;28;19928;-68
2022/11/05 02:13:34;;;;;;;;;;;5.80;99.90;;;;;;5062315;27;219393;-68
2022/11/05 02:16:03;;;;;;;;;;;5.80;99.90;;;;;;5106679;27;19920;-68
2022/11/05 02:18:35;;;;;;;;;;;5.80;99.90;;;;;;5069077;27;219830;-68
2022/11/05 02:21:25;;;;;;;;;;;5.80;99.90;;;;;;5110920;27;20673;-72
2022/11/05 02:23:57;;;;;;;;;;;5.80;99.90;;;;;;4969528;28;175364;-68
2022/11/05 02:26:41;;;;;;;;;;;5.80;99.90;;;;;;5024074;28;19959;-68
2022/11/05 02:29:25;;;;;;;;;;;5.80;99.90;;;;;;4991627;28;206637;-68
2022/11/05 02:32:12;;;;;;;;;;;5.80;99.90;;;;;;4994072;28;154142;-67
2022/11/05 02:34:56;;;;;;;;;;;5.80;99.90;;;;;;4986791;28;19929;-69
2022/11/05 02:37:34;;;;;;;;;;;5.80;99.90;;;;;;4982128;28;210688;-70
2022/11/05 02:40:03;;;;;;;;;;;5.80;99.90;;;;;;5024529;28;19929;-68
2022/11/05 02:42:32;;;;;;;;;;;5.80;99.90;;;;;;4992797;28;204645;-68
2022/11/05 02:44:58;;;;;;;;;;;5.80;99.90;;;;;;5034709;28;19928;-68
2022/11/05 02:47:32;;;;;;;;;;;5.80;99.90;;;;;;5001047;28;177520;-68
2022/11/05 02:50:17;;;;;;;;;;;5.80;99.90;;;;;;5036147;28;21140;-69
2022/11/05 02:52:50;;;;;;;;;;;5.80;99.90;;;;;;5003238;28;165382;-69
2022/11/05 02:55:22;;;;;;;;;;;5.80;99.90;;;;;;5033205;28;19921;-69
2022/11/05 02:57:48;;;;;;;;;;;5.80;99.90;;;;;;5014263;28;170271;-68
2022/11/05 03:00:38;;;;;;;;;;;5.80;99.90;;;;;;5080219;28;20392;-68
2022/11/05 03:03:13;;;;;;;;;;;5.70;99.90;;;;;;5037958;28;204263;-67
2022/11/05 03:05:45;;;;;;;;;;;5.70;99.90;;;;;;5103929;27;19923;-68
2022/11/05 03:08:17;;;;;;;;;;;5.70;99.90;;;;;;5064626;27;207228;-73
2022/11/05 03:10:58;;;;;;;;;;;5.70;99.90;;;;;;5093332;28;19931;-70
2022/11/05 03:13:38;;;;;;;;;;;5.70;99.90;;;;;;5067628;27;205771;-67
2022/11/05 03:16:23;;;;;;;;;;;5.70;99.90;;;;;;5108621;28;19931;-68
2022/11/05 03:19:09;;;;;;;;;;;5.70;99.90;;;;;;5061922;27;148783;-69
2022/11/05 03:21:41;;;;;;;;;;;5.70;99.90;;;;;;5068423;28;209383;-70
2022/11/05 03:24:11;;;;;;;;;;;5.70;99.90;;;;;;5057207;28;20430;-68
2022/11/05 03:26:41;;;;;;;;;;;5.70;99.90;;;;;;5080353;27;206634;-67
2022/11/05 03:29:10;;;;;;;;;;;5.70;99.90;;;;;;5041261;27;20289;-71
2022/11/05 03:31:38;;;;;;;;;;;5.70;99.90;;;;;;5077948;27;207610;-68
2022/11/05 03:34:05;;;;;;;;;;;5.70;99.90;;;;;;5038374;28;20133;-68
2022/11/05 03:36:38;;;;;;;;;;;5.60;99.90;;;;;;5109762;27;20446;-66
2022/11/05 03:39:06;;;;;;;;;;;5.60;99.90;;;;;;5020428;27;177418;-69
2022/11/05 03:41:33;;;;;;;;;;;5.70;99.90;;;;;;5101579;28;210310;-67
2022/11/05 03:44:02;;;;;;;;;;;5.70;99.90;;;;;;5089873;27;155536;-67
2022/11/05 03:46:30;;;;;;;;;;;5.70;99.90;;;;;;5109333;28;19946;-69
2022/11/05 03:48:57;;;;;;;;;;;5.60;99.90;;;;;;5053698;27;205401;-66
2022/11/05 03:51:28;;;;;;;;;;;5.70;99.90;;;;;;5112028;27;19920;-69
2022/11/05 03:53:55;;;;;;;;;;;5.60;99.90;;;;;;5039198;28;205338;-67
2022/11/05 03:56:34;;;;;;;;;;;5.60;99.90;;;;;;5107747;28;19924;-68
2022/11/05 03:59:01;;;;;;;;;;;5.70;99.90;;;;;;5045147;27;214005;-68
2022/11/05 04:01:28;;;;;;;;;;;5.60;99.90;;;;;;5109388;28;19924;-70
2022/11/05 04:03:54;;;;;;;;;;;5.50;99.90;;;;;;5046564;27;205467;-68
2022/11/05 04:14:34;;;;;;;;;;;5.50;99.90;;;;;;5098103;28;20296;-69
2022/11/05 04:17:05;;;;;;;;;;;5.40;99.90;;;;;;5065075;27;206178;-68
2022/11/05 04:25:03;;;;;;;;;;;5.40;99.90;;;;;;5104165;28;19920;-69
2022/11/05 04:27:29;;;;;;;;;;;5.40;99.90;;;;;;5042518;27;190554;-68
2022/11/05 04:32:40;;;;;;;;;;;5.40;99.90;;;;;;5060267;27;125967;-69
2022/11/05 04:35:06;;;;;;;;;;;5.40;99.90;;;;;;5117503;27;20018;-68
2022/11/05 04:37:32;;;;;;;;;;;5.30;99.90;;;;;;5054956;27;208295;-67
2022/11/05 04:39:58;;;;;;;;;;;5.40;99.90;;;;;;5095553;28;19932;-68
2022/11/05 04:42:24;;;;;;;;;;;5.40;99.90;;;;;;5060231;27;209773;-67
2022/11/05 04:44:50;;;;;;;;;;;5.40;99.90;;;;;;5116900;27;19974;-68
2022/11/05 04:47:15;;;;;;;;;;;5.40;99.90;;;;;;5068069;27;210208;-69
2022/11/05 04:49:41;;;;;;;;;;;5.30;99.90;;;;;;5103313;27;19935;-67
2022/11/05 04:52:07;;;;;;;;;;;5.30;99.90;;;;;;5050085;27;227514;-68
2022/11/05 04:54:33;;;;;;;;;;;5.20;99.90;;;;;;5093913;28;20446;-68
2022/11/05 04:56:59;;;;;;;;;;;5.20;99.90;;;;;;5062771;27;134153;-68
2022/11/05 04:59:25;;;;;;;;;;;5.20;99.90;;;;;;5113836;27;19931;-68
2022/11/05 05:01:51;;;;;;;;;;;5.20;99.90;;;;;;5047889;27;211397;-68
2022/11/05 05:04:18;;;;;;;;;;;5.20;99.90;;;;;;5116448;27;20316;-68
2022/11/05 05:06:44;;;;;;;;;;;5.20;99.90;;;;;;5053340;27;215647;-67
2022/11/05 05:09:10;;;;;;;;;;;5.20;99.90;;;;;;5112511;27;19935;-67
2022/11/05 05:11:35;;;;;;;;;;;5.20;99.90;;;;;;5087629;27;209288;-68
2022/11/05 05:14:01;;;;;;;;;;;5.20;99.90;;;;;;5086016;27;205341;-67
2022/11/05 05:16:27;;;;;;;;;;;5.20;99.90;;;;;;5103226;27;20457;-67
2022/11/05 05:18:53;;;;;;;;;;;5.20;99.90;;;;;;5031798;28;209953;-68
2022/11/05 05:21:39;;;;;;;;;;;5.20;99.90;;;;;;5107505;27;19923;-68
2022/11/05 05:24:07;;;;;;;;;;;5.10;99.90;;;;;;5023881;28;207953;-68
2022/11/05 05:26:35;;;;;;;;;;;5.10;99.90;;;;;;5092302;27;207590;-67
2022/11/05 05:29:01;;;;;;;;;;;5.10;99.90;;;;;;5067756;27;153166;-68
2022/11/05 05:31:27;;;;;;;;;;;5.10;99.90;;;;;;5105350;27;19920;-68
2022/11/05 05:33:53;;;;;;;;;;;5.10;99.90;;;;;;5067820;27;207261;-67
2022/11/05 05:36:20;;;;;;;;;;;5.10;99.90;;;;;;5102652;28;20009;-68
2022/11/05 05:38:46;;;;;;;;;;;5.10;99.90;;;;;;5061564;27;211273;-68
2022/11/05 05:41:12;;;;;;;;;;;5.10;99.90;;;;;;5099296;28;20491;-68
2022/11/05 05:43:38;;;;;;;;;;;5.00;99.90;;;;;;5056257;27;206299;-69
2022/11/05 05:46:05;;;;;;;;;;;5.00;99.90;;;;;;5099363;28;20041;-67
2022/11/05 05:48:31;;;;;;;;;;;5.00;99.90;;;;;;5050256;27;209564;-68
2022/11/05 05:51:01;;;;;;;;;;;5.00;99.90;;;;;;5101251;27;19928;-68
2022/11/05 05:53:27;;;;;;;;;;;5.00;99.90;;;;;;5058011;27;210034;-67
2022/11/05 05:55:54;;;;;;;;;;;5.00;99.90;;;;;;5109012;27;19926;-68
2022/11/05 05:58:20;;;;;;;;;;;5.00;99.90;;;;;;5068115;27;207355;-68
2022/11/05 06:00:46;;;;;;;;;;;5.00;99.90;;;;;;5105648;27;19930;-67
2022/11/05 06:03:12;;;;;;;;;;;5.00;99.90;;;;;;5051948;27;207601;-69
2022/11/05 06:05:38;;;;;;;;;;;5.10;99.90;;;;;;5107090;27;19926;-68
2022/11/05 06:08:04;;;;;;;;;;;5.10;99.90;;;;;;5031081;28;207151;-69
2022/11/05 06:10:30;;;;;;;;;;;5.20;99.90;;;;;;5090527;27;19935;-68
2022/11/05 06:12:59;;;;;;;;;;;5.20;99.90;;;;;;5033831;28;185568;-68
2022/11/05 06:15:25;;;;;;;;;;;5.30;99.90;;;;;;5108875;27;19937;-67
2022/11/05 06:17:51;;;;;;;;;;;5.30;99.90;;;;;;5052925;28;206069;-68
2022/11/05 06:20:17;;;;;;;;;;;5.40;99.90;;;;;;5102140;27;19931;-67
2022/11/05 06:22:43;;;;;;;;;;;5.40;99.90;;;;;;5044852;28;188094;-69
2022/11/05 06:25:09;;;;;;;;;;;5.40;99.90;;;;;;5089518;28;20315;-68
2022/11/05 06:27:35;;;;;;;;;;;5.50;99.90;;;;;;5059726;27;207607;-69
2022/11/05 06:30:05;;;;;;;;;;;5.40;99.90;;;;;;5100545;28;20396;-68
2022/11/05 06:32:31;;;;;;;;;;;5.50;99.90;;;;;;5049207;27;207380;-69
2022/11/05 06:34:57;;;;;;;;;;;5.50;99.90;;;;;;5096237;28;19930;-67
2022/11/05 06:37:23;;;;;;;;;;;5.40;99.90;;;;;;5037426;28;152021;-69
2022/11/05 06:39:49;;;;;;;;;;;5.50;99.90;;;;;;5102303;27;19935;-68
2022/11/05 06:42:14;;;;;;;;;;;5.50;99.90;;;;;;5048087;28;209848;-68
2022/11/05 06:44:40;;;;;;;;;;;5.50;99.90;;;;;;5097984;28;20015;-68
2022/11/05 06:47:06;;;;;;;;;;;5.50;99.90;;;;;;5060657;27;214106;-68
2022/11/05 06:49:32;;;;;;;;;;;5.50;99.90;;;;;;5109645;27;19989;-72
2022/11/05 06:51:58;;;;;;;;;;;5.40;99.90;;;;;;5057306;28;230738;-69
2022/11/05 06:54:24;;;;;;;;;;;5.50;99.90;;;;;;5090004;28;19924;-68
2022/11/05 06:56:50;;;;;;;;;;;5.40;99.90;;;;;;5052084;28;193447;-68
2022/11/05 06:59:16;;;;;;;;;;;5.50;99.90;;;;;;5082576;28;19930;-67
2022/11/05 07:01:42;;;;;;;;;;;5.50;99.90;;;;;;5056852;28;209193;-69
2022/11/05 07:04:10;;;;;;;;;;;5.50;99.90;;;;;;5074685;28;19923;-68
2022/11/05 07:06:36;;;;;;;;;;;5.50;99.90;;;;;;5068155;27;215679;-68
2022/11/05 07:09:02;;;;;;;;;;;5.50;99.90;;;;;;5026231;28;166868;-68
2022/11/05 07:11:28;;;;;;;;;;;5.50;99.90;;;;;;5092920;28;19924;-67
2022/11/05 07:13:54;;;;;;;;;;;5.50;99.90;;;;;;5071218;27;207055;-68
2022/11/05 07:16:20;;;;;;;;;;;5.50;99.90;;;;;;5103605;28;19924;-68
2022/11/05 07:18:45;;;;;;;;;;;5.50;99.90;;;;;;5055785;28;227780;-68
2022/11/05 07:21:11;;;;;;;;;;;5.60;99.90;;;;;;5104233;28;19924;-68
2022/11/05 07:23:39;;;;;;;;;;;5.60;99.90;;;;;;5067634;27;212219;-67
2022/11/05 07:26:04;;;;;;;;;;;5.60;99.90;;;;;;5098339;28;19920;-68
2022/11/05 07:28:30;;;;;;;;;;;5.60;99.90;;;;;;5060198;27;212542;-68
2022/11/05 07:31:00;;;;;;;;;;;5.70;99.90;;;;;;5101078;28;19926;-69
2022/11/05 07:33:26;;;;;;;;;;;5.70;99.90;;;;;;5061726;27;208876;-70
2022/11/05 07:35:54;;;;;;;;;;;5.70;99.90;;;;;;5100253;28;19927;-69
2022/11/05 07:38:20;;;;;;;;;;;5.70;99.90;;;;;;5058610;27;243785;-69
2022/11/05 07:40:46;;;;;;;;;;;5.80;99.90;;;;;;5102576;28;19924;-69
2022/11/05 07:43:12;;;;;;;;;;;5.80;99.90;;;;;;5060222;27;203276;-70
2022/11/05 07:45:38;;;;;;;;;;;5.80;99.90;;;;;;5105125;28;19924;-69
2022/11/05 07:48:04;;;;;;;;;;;5.90;99.90;;;;;;5052436;27;238452;-67
2022/11/05 07:50:32;;;;;;;;;;;5.90;99.90;;;;;;5100576;27;20300;-69
2022/11/05 07:53:09;;;;;;;;;;;6.00;99.90;;;;;;5059364;27;159498;-68
2022/11/05 07:55:35;;;;;;;;;;;6.00;99.90;;;;;;5102478;27;20327;-72
2022/11/05 07:58:01;;;;;;;;;;;6.10;99.90;;;;;;5032964;27;193892;-68
2022/11/05 08:00:28;;;;;;;;;;;6.20;99.90;;;;;;5101271;28;19935;-70
2022/11/05 08:02:58;;;;;;;;;;;6.20;99.90;;;;;;5051058;27;211177;-68
2022/11/05 08:05:24;;;;;;;;;;;6.30;99.90;;;;;;5104321;27;19924;-69
2022/11/05 08:07:51;;;;;;;;;;;6.30;99.90;;;;;;5039492;27;181119;-68
2022/11/05 08:10:17;;;;;;;;;;;6.40;99.90;;;;;;5074119;28;20376;-68
2022/11/05 08:12:43;;;;;;;;;;;6.40;99.90;;;;;;5043497;27;160141;-69
2022/11/05 08:15:09;;;;;;;;;;;6.50;99.90;;;;;;5112655;27;19962;-68
2022/11/05 08:17:35;;;;;;;;;;;6.60;99.90;;;;;;5043886;27;212418;-68
2022/11/05 08:20:01;;;;;;;;;;;6.70;99.90;;;;;;5098595;28;19924;-68
2022/11/05 08:22:27;;;;;;;;;;;6.80;99.90;;;;;;5039717;27;171294;-68
2022/11/05 08:24:53;;;;;;;;;;;6.90;99.90;;;;;;5098071;27;19927;-68
2022/11/05 08:27:19;;;;;;;;;;;7.00;99.90;;;;;;5056441;27;261157;-68
2022/11/05 08:29:45;;;;;;;;;;;7.00;99.90;;;;;;5090709;27;19959;-69
2022/11/05 08:32:11;;;;;;;;;;;7.10;99.90;;;;;;5044810;27;210613;-70
2022/11/05 08:34:37;;;;;;;;;;;7.20;99.90;;;;;;5120169;27;19927;-70
2022/11/05 08:37:03;;;;;;;;;;;7.30;99.90;;;;;;5056835;27;212497;-69
2022/11/05 08:39:29;;;;;;;;;;;7.50;99.90;;;;;;5079912;27;19936;-68
2022/11/05 08:41:55;;;;;;;;;;;7.60;99.90;;;;;;5055126;27;207467;-71
2022/11/05 08:44:21;;;;;;;;;;;7.60;99.90;;;;;;5071705;28;19930;-69
2022/11/05 08:46:48;;;;;;;;;;;7.60;99.90;;;;;;5059248;27;222978;-69
2022/11/05 08:49:15;;;;;;;;;;;7.70;99.90;;;;;;5119648;27;19924;-69
2022/11/05 08:51:42;;;;;;;;;;;7.70;99.90;;;;;;5060312;27;213030;-70
2022/11/05 08:54:08;;;;;;;;;;;7.70;99.90;;;;;;5108594;27;20301;-68
2022/11/05 08:56:35;;;;;;;;;;;7.80;99.90;;;;;;5094957;27;217318;-68
2022/11/05 08:59:01;;;;;;;;;;;7.80;99.90;;;;;;5070284;27;211366;-69
2022/11/05 09:01:27;;;;;;;;;;;7.90;99.90;;;;;;5111903;27;19932;-69
2022/11/05 09:03:53;;;;;;;;;;;7.90;99.90;;;;;;5037518;27;210203;-69
2022/11/05 09:06:19;;;;;;;;;;;7.90;99.90;;;;;;5100362;27;19927;-69
2022/11/05 09:08:46;;;;;;;;;;;8.00;99.90;;;;;;5054605;27;215609;-69
2022/11/05 09:11:12;;;;;;;;;;;8.10;99.90;;;;;;5102364;27;20310;-68
2022/11/05 09:13:38;;;;;;;;;;;8.20;99.90;;;;;;4995591;28;225310;-69
2022/11/05 09:16:04;;;;;;;;;;;8.20;99.90;;;;;;5096960;28;19955;-68
2022/11/05 09:18:30;;;;;;;;;;;8.30;99.90;;;;;;5028573;28;209546;-69
2022/11/05 09:20:56;;;;;;;;;;;8.40;99.90;;;;;;5116787;27;19923;-68
2022/11/05 09:23:22;;;;;;;;;;;8.40;99.90;;;;;;5052623;27;187155;-69
2022/11/05 09:25:48;;;;;;;;;;;8.50;99.90;;;;;;5091427;28;19953;-68
2022/11/05 09:28:15;;;;;;;;;;;8.60;99.90;;;;;;5037355;27;221383;-69
2022/11/05 09:30:45;;;;;;;;;;;8.60;99.90;;;;;;5101525;27;19935;-68
2022/11/05 09:33:11;;;;;;;;;;;8.60;99.90;;;;;;5036962;27;173668;-68
2022/11/05 09:35:38;;;;;;;;;;;8.80;99.90;;;;;;5100667;27;19935;-66
2022/11/05 09:38:05;;;;;;;;;;;8.80;99.90;;;;;;5030589;27;220209;-68
2022/11/05 09:40:36;;;;;;;;;;;8.90;99.90;;;;;;5100890;27;19935;-68
2022/11/05 09:43:03;;;;;;;;;;;8.90;99.90;;;;;;5022114;28;217301;-67
2022/11/05 09:45:30;;;;;;;;;;;9.00;99.90;;;;;;5095043;27;19927;-67
2022/11/05 09:47:59;;;;;;;;;;;9.10;99.90;;;;;;5056473;27;207427;-67
2022/11/05 09:50:45;;;;;;;;;;;9.10;99.90;;;;;;5096081;28;19920;-67
2022/11/05 09:53:16;;;;;;;;;;;9.20;99.90;;;;;;5017982;28;163436;-67
2022/11/05 09:55:48;;;;;;;;;;;9.20;99.90;;;;;;5098385;27;19931;-66
2022/11/05 09:58:33;;;;;;;;;;;9.30;99.90;;;;;;5048952;27;209483;-67
2022/11/05 10:00:59;;;;;;;;;;;9.30;99.90;;;;;;5120471;27;19923;-67
2022/11/05 10:03:27;;;;;;;;;;;9.50;99.90;;;;;;5053224;27;208021;-67
2022/11/05 10:05:53;;;;;;;;;;;9.50;99.90;;;;;;5110905;27;19928;-68
2022/11/05 10:08:26;;;;;;;;;;;9.60;99.90;;;;;;5053221;27;205103;-68
2022/11/05 10:10:54;;;;;;;;;;;9.70;99.90;;;;;;5106655;27;19924;-68
2022/11/05 10:13:26;;;;;;;;;;;9.70;99.90;;;;;;5058741;28;181881;-67
2022/11/05 10:16:03;;;;;;;;;;;9.80;99.90;;;;;;5102307;27;20864;-67
2022/11/05 10:18:33;;;;;;;;;;;9.90;99.90;;;;;;5031041;28;181072;-66
2022/11/05 10:20:59;;;;;;;;;;;9.90;99.90;;;;;;5097992;28;19932;-67
2022/11/05 10:23:26;;;;;;;;;;;10.00;99.90;;;;;;5040558;28;207067;-68
2022/11/05 10:25:54;;;;;;;;;;;10.10;99.90;;;;;;5102960;27;19927;-66
2022/11/05 10:28:21;;;;;;;;;;;10.20;99.90;;;;;;5052585;27;212076;-68
2022/11/05 10:30:49;;;;;;;;;;;10.20;99.90;;;;;;5093414;27;20304;-68
2022/11/05 10:33:18;;;;;;;;;;;10.30;99.90;;;;;;5053322;27;97544;-69
2022/11/05 10:35:48;;;;;;;;;;;10.40;99.90;;;;;;5103071;27;19935;-67
2022/11/05 10:38:14;;;;;;;;;;;10.50;99.90;;;;;;5034593;28;206962;-67
2022/11/05 10:40:52;;;;;;;;;;;10.70;99.90;;;;;;5081356;28;19931;-65
2022/11/05 10:43:27;;;;;;;;;;;10.80;99.90;;;;;;5028064;28;207080;-68
2022/11/05 10:46:08;;;;;;;;;;;10.90;99.90;;;;;;5078288;28;20313;-67
2022/11/05 10:48:37;;;;;;;;;;;11.00;99.90;;;;;;5044141;28;207533;-67
2022/11/05 10:51:03;;;;;;;;;;;11.10;99.90;;;;;;5099671;27;20694;-67
2022/11/05 10:53:31;;;;;;;;;;;11.20;99.90;;;;;;5044562;28;171326;-66
2022/11/05 10:55:57;;;;;;;;;;;11.30;99.90;;;;;;5097675;28;19927;-68
2022/11/05 10:58:30;;;;;;;;;;;11.30;99.90;;;;;;5035774;28;205934;-68
2022/11/05 11:00:56;;;;;;;;;;;11.40;99.90;;;;;;5103473;27;19928;-68
2022/11/05 11:03:28;;;;;;;;;;;11.40;99.90;;;;;;5045092;27;208528;-70
2022/11/05 11:06:02;;;;;;;;;;;11.40;99.90;;;;;;5103171;27;20187;-69
2022/11/05 11:08:29;;;;;;;;;;;11.50;99.90;;;;;;5043816;28;208343;-64
2022/11/05 11:11:00;;;;;;;;;;;11.50;99.90;;;;;;5101386;27;20399;-68
2022/11/05 11:13:28;;;;;;;;;;;11.50;99.90;;;;;;5040005;27;208613;-68
2022/11/05 11:16:11;;;;;;;;;;;11.50;99.90;;;;;;5108426;27;19935;-67
2022/11/05 11:18:38;;;;;;;;;;;11.60;99.90;;;;;;5061281;27;209418;-67
2022/11/05 11:21:14;;;;;;;;;;;11.60;99.90;;;;;;5106633;27;19927;-67
2022/11/05 11:23:41;;;;;;;;;;;11.50;99.90;;;;;;5043655;27;207922;-67
2022/11/05 11:26:08;;;;;;;;;;;11.60;99.90;;;;;;5099775;28;20636;-68
2022/11/05 11:29:01;;;;;;;;;;;11.60;99.90;;;;;;5045932;27;207078;-67
2022/11/05 11:31:28;;;;;;;;;;;11.60;99.90;;;;;;5043408;28;19929;-67
2022/11/05 11:34:04;;;;;;;;;;;11.70;99.90;;;;;;4973918;28;212322;-65
2022/11/05 11:36:32;;;;;;;;;;;11.80;99.90;;;;;;5008936;28;20484;-68
2022/11/05 11:39:00;;;;;;;;;;;11.80;99.90;;;;;;4972270;28;176153;-66
2022/11/05 11:41:28;;;;;;;;;;;11.90;99.90;;;;;;5026195;28;19925;-66
2022/11/05 11:43:58;;;;;;;;;;;12.10;99.90;;;;;;4976811;28;206050;-67
2022/11/05 11:46:24;;;;;;;;;;;12.20;99.90;;;;;;5027313;28;19921;-67
2022/11/05 11:48:50;;;;;;;;;;;12.40;99.90;;;;;;4982335;28;206663;-66
2022/11/05 11:51:29;;;;;;;;;;;12.60;99.90;;;;;;5025458;28;20541;-66
2022/11/05 11:53:56;;;;;;;;;;;12.80;99.90;;;;;;4968308;28;207852;-65
2022/11/05 11:56:22;;;;;;;;;;;12.80;99.90;;;;;;5032536;28;19927;-67
2022/11/05 11:58:49;;;;;;;;;;;12.90;99.90;;;;;;5000219;28;116453;-67
2022/11/05 12:01:25;;;;;;;;;;;12.80;99.90;;;;;;5027944;28;19924;-66
2022/11/05 12:03:59;;;;;;;;;;;12.60;99.90;;;;;;4961593;28;161289;-67
2022/11/05 12:06:25;;;;;;;;;;;12.50;99.90;;;;;;5026054;28;19948;-66
2022/11/05 12:09:12;;;;;;;;;;;12.40;99.90;;;;;;5018976;28;203203;-67
2022/11/05 12:11:40;;;;;;;;;;;12.40;99.90;;;;;;5074896;27;211038;-67
2022/11/05 12:14:27;;;;;;;;;;;12.30;99.90;;;;;;5049106;28;20816;-67
2022/11/05 12:17:10;;;;;;;;;;;12.20;99.90;;;;;;5049632;27;212442;-66
2022/11/05 12:19:43;;;;;;;;;;;12.00;99.90;;;;;;5089883;27;19919;-66
2022/11/05 12:22:20;;;;;;;;;;;12.00;99.90;;;;;;5063629;27;207747;-66
2022/11/05 12:25:05;;;;;;;;;;;11.90;99.90;;;;;;5108531;27;19927;-66
2022/11/05 12:27:43;;;;;;;;;;;11.90;99.90;;;;;;5048552;27;180620;-66
2022/11/05 12:30:12;;;;;;;;;;;11.90;99.90;;;;;;5090335;27;20307;-66
2022/11/05 12:32:55;;;;;;;;;;;11.80;99.90;;;;;;5040476;28;158387;-66
2022/11/05 12:35:46;;;;;;;;;;;11.70;99.90;;;;;;5101468;28;19923;-66
2022/11/05 12:38:18;;;;;;;;;;;11.60;99.90;;;;;;5047722;27;231606;-67
2022/11/05 12:40:44;;;;;;;;;;;11.60;99.90;;;;;;5103188;27;19928;-68
2022/11/05 12:43:18;;;;;;;;;;;11.50;99.90;;;;;;5051564;27;207075;-69
2022/11/05 12:45:54;;;;;;;;;;;11.50;99.90;;;;;;5099234;27;19995;-68
2022/11/05 12:48:19;;;;;;;;;;;11.50;99.90;;;;;;5043583;28;205581;-66
2022/11/05 12:50:45;;;;;;;;;;;11.50;99.90;;;;;;5100032;27;20006;-68
2022/11/05 12:53:23;;;;;;;;;;;11.40;99.90;;;;;;5051637;27;208533;-68
2022/11/05 12:55:50;;;;;;;;;;;11.40;99.90;;;;;;5085043;27;19920;-68
2022/11/05 12:58:16;;;;;;;;;;;11.40;99.90;;;;;;5048349;27;178325;-67
2022/11/05 13:00:45;;;;;;;;;;;11.40;99.90;;;;;;5102351;27;19931;-67
2022/11/05 13:03:21;;;;;;;;;;;11.40;99.90;;;;;;5023824;27;210729;-69
2022/11/05 13:05:50;;;;;;;;;;;11.40;99.90;;;;;;5099395;27;19920;-69
2022/11/05 13:08:21;;;;;;;;;;;11.50;99.90;;;;;;5031568;27;143982;-69
2022/11/05 13:11:05;;;;;;;;;;;11.50;99.90;;;;;;5114971;27;19924;-68
2022/11/05 13:13:37;;;;;;;;;;;11.50;99.90;;;;;;5060504;27;204009;-69
2022/11/05 13:16:12;;;;;;;;;;;11.60;99.90;;;;;;5106064;27;19923;-67
2022/11/05 13:18:52;;;;;;;;;;;11.70;99.90;;;;;;5058999;27;209312;-68
2022/11/05 13:21:22;;;;;;;;;;;11.80;99.90;;;;;;5102312;28;19943;-68
2022/11/05 13:23:50;;;;;;;;;;;11.80;99.90;;;;;;5048558;27;208075;-68
2022/11/05 13:26:27;;;;;;;;;;;11.90;99.90;;;;;;5124315;27;20408;-67
2022/11/05 13:29:02;;;;;;;;;;;11.90;99.90;;;;;;5052594;27;207188;-67
2022/11/05 13:31:35;;;;;;;;;;;11.90;99.90;;;;;;5118979;27;19926;-68
2022/11/05 13:34:03;;;;;;;;;;;11.90;99.90;;;;;;5058185;27;206328;-66
2022/11/05 13:39:28;;;;;;;;;;;11.90;99.90;;;;;;5043143;28;34973;-68
2022/11/05 13:41:54;;;;;;;;;;;11.90;99.90;;;;;;5051715;27;206449;-68
2022/11/05 13:44:31;;;;;;;;;;;11.90;99.90;;;;;;5086261;27;19931;-67
2022/11/05 13:47:00;;;;;;;;;;;11.90;99.90;;;;;;5071947;27;207749;-67
2022/11/05 13:49:45;;;;;;;;;;;11.90;99.90;;;;;;5113089;27;19920;-69
2022/11/05 13:52:29;;;;;;;;;;;12.00;99.90;;;;;;5059415;27;216105;-67
2022/11/05 13:55:22;;;;;;;;;;;12.10;99.90;;;;;;5092250;27;19924;-70
2022/11/05 13:58:07;;;;;;;;;;;12.00;99.90;;;;;;5052189;27;138671;-71
2022/11/05 14:00:45;;;;;;;;;;;11.90;99.90;;;;;;5099112;27;19928;-65
2022/11/05 14:03:18;;;;;;;;;;;11.90;99.90;;;;;;5038502;27;207704;-66
2022/11/05 14:05:51;;;;;;;;;;;11.90;99.90;;;;;;5097518;28;19920;-68
2022/11/05 14:08:18;;;;;;;;;;;11.80;99.90;;;;;;5048377;27;206290;-67
2022/11/05 14:10:55;;;;;;;;;;;11.70;99.90;;;;;;5082328;28;19924;-69
2022/11/05 14:13:21;;;;;;;;;;;11.70;99.90;;;;;;5058378;27;223074;-68
2022/11/05 14:15:55;;;;;;;;;;;11.60;99.90;;;;;;5101544;28;20560;-68
2022/11/05 14:18:24;;;;;;;;;;;11.50;99.90;;;;;;5036074;27;146731;-69
2022/11/05 14:21:03;;;;;;;;;;;11.50;99.90;;;;;;5074783;28;19928;-70
2022/11/05 14:23:29;;;;;;;;;;;11.50;99.90;;;;;;5032012;27;189699;-69
2022/11/05 14:26:14;;;;;;;;;;;11.40;99.90;;;;;;5098624;28;19930;-69
2022/11/05 14:28:42;;;;;;;;;;;11.40;99.90;;;;;;5059871;27;217058;-69
2022/11/05 14:31:12;;;;;;;;;;;11.40;99.90;;;;;;5120898;27;19920;-69
2022/11/05 14:33:38;;;;;;;;;;;11.30;99.90;;;;;;5054520;27;169970;-70
2022/11/05 14:36:19;;;;;;;;;;;11.30;99.90;;;;;;5113787;27;19931;-69
2022/11/05 14:38:57;;;;;;;;;;;11.30;99.90;;;;;;5040506;27;206435;-69
2022/11/05 14:41:23;;;;;;;;;;;11.20;99.90;;;;;;5102554;28;19928;-68
2022/11/05 14:43:57;;;;;;;;;;;11.20;99.90;;;;;;5057040;27;206663;-69
2022/11/05 14:46:23;;;;;;;;;;;11.20;99.90;;;;;;5108053;28;20410;-69
2022/11/05 14:48:50;;;;;;;;;;;11.20;99.90;;;;;;5033008;28;134075;-68
2022/11/05 14:51:31;;;;;;;;;;;11.20;99.90;;;;;;5086739;28;20415;-69
2022/11/05 14:54:04;;;;;;;;;;;11.10;99.90;;;;;;5026422;28;258757;-71
2022/11/05 14:56:44;;;;;;;;;;;11.10;99.90;;;;;;5085277;28;20030;-70
2022/11/05 14:59:23;;;;;;;;;;;11.10;99.90;;;;;;5036557;27;206516;-69
2022/11/05 15:01:48;;;;;;;;;;;11.10;99.90;;;;;;5038214;27;232809;-69
2022/11/05 15:04:14;;;;;;;;;;;11.00;99.90;;;;;;5094134;28;19970;-69
2022/11/05 15:07:00;;;;;;;;;;;11.00;99.90;;;;;;5066290;27;227697;-69
2022/11/05 15:09:33;;;;;;;;;;;11.00;99.90;;;;;;5023736;28;20412;-70
2022/11/05 15:12:11;;;;;;;;;;;11.00;99.90;;;;;;5022660;28;195092;-71
2022/11/05 15:14:41;;;;;;;;;;;10.90;99.90;;;;;;5084595;28;19922;-70
2022/11/05 15:17:28;;;;;;;;;;;10.90;99.90;;;;;;5026419;28;227656;-68
2022/11/05 15:20:00;;;;;;;;;;;10.90;99.90;;;;;;5089162;27;19928;-69